createdAt,value
2022-11-02T00:00:03.981Z,11.23
2022-11-02T00:01:03.938Z,11.26
2022-11-02T00:02:04.075Z,11.25
2022-11-02T00:03:04.288Z,11.26
2022-11-02T00:04:03.918Z,11.23
2022-11-02T00:05:03.956Z,11.22
2022-11-02T00:06:03.911Z,11.23
2022-11-02T00:07:03.885Z,11.25
2022-11-02T00:08:03.863Z,11.22
2022-11-02T00:09:03.860Z,11.22
2022-11-02T00:10:03.871Z,11.19
2022-11-02T00:11:03.868Z,11.22
2022-11-02T00:12:03.821Z,11.18
2022-11-02T00:13:04.222Z,11.17
2022-11-02T00:14:03.806Z,11.15
2022-11-02T00:15:03.802Z,11.14
2022-11-02T00:16:03.802Z,11.14
2022-11-02T00:17:03.778Z,11.14
2022-11-02T00:18:09.775Z,11.15
2022-11-02T00:19:03.763Z,11.15
2022-11-02T00:20:03.829Z,11.15
2022-11-02T00:21:03.722Z,11.18
2022-11-02T00:22:03.738Z,11.18
2022-11-02T00:23:04.074Z,11.19
2022-11-02T00:24:03.697Z,11.18
2022-11-02T00:25:03.689Z,11.19
2022-11-02T00:26:03.691Z,11.19
2022-11-02T00:27:03.721Z,11.19
2022-11-02T00:28:03.676Z,11.18
2022-11-02T00:29:03.641Z,11.19
2022-11-02T00:30:03.711Z,11.19
2022-11-02T00:31:03.701Z,11.19
2022-11-02T00:32:03.670Z,11.17
2022-11-02T00:33:03.999Z,11.18
2022-11-02T00:34:03.633Z,11.19
2022-11-02T00:35:03.626Z,11.23
2022-11-02T00:36:03.596Z,11.19
2022-11-02T00:37:03.649Z,11.19
2022-11-02T00:38:03.908Z,11.25
2022-11-02T00:39:03.558Z,11.19
2022-11-02T00:40:03.637Z,11.19
2022-11-02T00:41:03.523Z,11.22
2022-11-02T00:42:03.513Z,11.19
2022-11-02T00:43:03.515Z,11.19
2022-11-02T00:44:03.496Z,11.19
2022-11-02T00:45:03.479Z,11.19
2022-11-02T00:46:03.458Z,11.18
2022-11-02T00:47:03.467Z,11.18
2022-11-02T00:48:03.758Z,11.22
2022-11-02T00:49:03.462Z,11.22
2022-11-02T00:50:03.521Z,11.23
2022-11-02T00:51:03.411Z,11.22
2022-11-02T00:52:03.404Z,11.25
2022-11-02T00:53:03.399Z,11.25
2022-11-02T00:54:03.406Z,11.23
2022-11-02T00:55:03.359Z,11.25
2022-11-02T00:56:03.368Z,11.23
2022-11-02T00:57:03.757Z,11.22
2022-11-02T00:58:03.616Z,11.22
2022-11-02T00:59:03.323Z,11.23
2022-11-02T01:00:04.016Z,11.23
2022-11-02T01:01:03.316Z,11.23
2022-11-02T01:02:03.447Z,11.23
2022-11-02T01:03:03.302Z,11.25
2022-11-02T01:04:03.265Z,11.23
2022-11-02T01:05:03.260Z,11.25
2022-11-02T01:06:03.242Z,11.23
2022-11-02T01:07:03.229Z,11.23
2022-11-02T01:08:03.699Z,11.22
2022-11-02T01:09:03.239Z,11.19
2022-11-02T01:10:03.988Z,11.22
2022-11-02T01:11:03.192Z,11.22
2022-11-02T01:12:03.198Z,11.22
2022-11-02T01:13:03.174Z,11.23
2022-11-02T01:14:03.167Z,11.22
2022-11-02T01:15:03.229Z,11.19
2022-11-02T01:16:03.153Z,11.22
2022-11-02T01:17:03.134Z,11.19
2022-11-02T01:18:03.619Z,11.18
2022-11-02T01:19:03.117Z,11.19
2022-11-02T01:20:03.108Z,11.22
2022-11-02T01:21:03.150Z,11.18
2022-11-02T01:22:03.084Z,11.17
2022-11-02T01:23:03.064Z,11.17
2022-11-02T01:24:03.068Z,11.14
2022-11-02T01:25:03.039Z,11.14
2022-11-02T01:26:03.044Z,11.14
2022-11-02T01:27:03.042Z,11.14
2022-11-02T01:28:03.211Z,11.15
2022-11-02T01:29:03.071Z,11.15
2022-11-02T01:30:02.994Z,11.15
2022-11-02T01:31:02.992Z,11.15
2022-11-02T01:32:02.982Z,11.15
2022-11-02T01:33:02.961Z,11.17
2022-11-02T01:34:02.961Z,11.17
2022-11-02T01:35:02.992Z,11.18
2022-11-02T01:36:02.933Z,11.18
2022-11-02T01:37:02.934Z,11.15
2022-11-02T01:38:03.292Z,11.15
2022-11-02T01:39:02.891Z,11.15
2022-11-02T01:40:02.882Z,11.17
2022-11-02T01:41:02.873Z,11.14
2022-11-02T01:42:02.894Z,11.14
2022-11-02T01:43:02.867Z,11.15
2022-11-02T01:44:02.858Z,11.14
2022-11-02T01:45:02.831Z,11.11
2022-11-02T01:46:02.823Z,11.12
2022-11-02T01:47:02.817Z,11.14
2022-11-02T01:48:03.186Z,11.12
2022-11-02T01:49:02.831Z,11.14
2022-11-02T01:50:02.800Z,11.11
2022-11-02T01:51:02.767Z,11.12
2022-11-02T01:52:02.762Z,11.11
2022-11-02T01:53:02.749Z,11.11
2022-11-02T01:54:02.760Z,11.11
2022-11-02T01:55:02.752Z,11.12
2022-11-02T01:56:02.721Z,11.11
2022-11-02T01:57:02.709Z,11.12
2022-11-02T01:58:03.288Z,11.12
2022-11-02T01:59:02.701Z,11.10
2022-11-02T02:00:02.691Z,11.10
2022-11-02T02:01:02.672Z,11.08
2022-11-02T02:02:02.758Z,11.10
2022-11-02T02:03:02.641Z,11.11
2022-11-02T02:04:02.652Z,11.11
2022-11-02T02:05:02.614Z,11.10
2022-11-02T02:06:02.637Z,11.11
2022-11-02T02:07:02.598Z,11.07
2022-11-02T02:08:02.990Z,11.07
2022-11-02T02:09:02.582Z,11.11
2022-11-02T02:10:02.801Z,11.10
2022-11-02T06:01:16.498Z,10.44
2022-11-02T06:02:17.401Z,10.44
2022-11-02T06:03:23.423Z,10.42
2022-11-02T06:04:17.616Z,10.42
2022-11-02T06:05:17.409Z,10.41
2022-11-02T06:06:17.377Z,10.41
2022-11-02T06:07:17.382Z,10.42
2022-11-02T06:08:17.342Z,10.44
2022-11-02T06:09:17.316Z,10.48
2022-11-02T06:10:17.310Z,10.46
2022-11-02T06:11:17.316Z,10.46
2022-11-02T06:12:17.330Z,10.51
2022-11-02T06:13:17.279Z,10.51
2022-11-02T06:14:17.292Z,10.48
2022-11-02T06:15:17.255Z,10.46
2022-11-02T06:17:27.590Z,10.46
2022-11-02T06:18:28.536Z,10.41
2022-11-02T06:19:28.530Z,10.42
2022-11-02T06:20:28.520Z,10.42
2022-11-02T06:21:28.532Z,10.42
2022-11-02T06:22:28.495Z,10.41
2022-11-02T06:23:28.500Z,10.41
2022-11-02T06:24:28.486Z,10.38
2022-11-02T06:25:28.494Z,10.35
2022-11-02T06:26:28.456Z,10.37
2022-11-02T06:27:28.456Z,10.37
2022-11-02T06:28:28.435Z,10.38
2022-11-02T06:29:28.436Z,10.41
2022-11-02T06:30:28.426Z,10.41
2022-11-02T06:31:28.433Z,10.41
2022-11-02T06:32:28.393Z,10.44
2022-11-02T06:33:28.402Z,10.44
2022-11-02T06:34:28.386Z,10.44
2022-11-02T06:35:28.385Z,10.42
2022-11-02T06:36:28.363Z,10.44
2022-11-02T06:37:28.345Z,10.44
2022-11-02T06:38:28.330Z,10.42
2022-11-02T06:39:28.339Z,10.42
2022-11-02T06:40:28.314Z,10.46
2022-11-02T06:41:28.339Z,10.46
2022-11-02T06:42:28.283Z,10.46
2022-11-02T06:43:28.280Z,10.46
2022-11-02T06:44:28.264Z,10.46
2022-11-02T06:45:28.259Z,10.46
2022-11-02T06:46:28.244Z,10.48
2022-11-02T06:47:28.252Z,10.51
2022-11-02T06:48:34.321Z,10.49
2022-11-02T06:49:28.226Z,10.49
2022-11-02T06:50:28.198Z,10.51
2022-11-02T06:51:28.218Z,10.48
2022-11-02T06:52:28.189Z,10.48
2022-11-02T06:53:28.247Z,10.48
2022-11-02T06:54:28.161Z,10.46
2022-11-02T06:55:28.150Z,10.48
2022-11-02T06:56:28.142Z,10.49
2022-11-02T06:57:28.131Z,10.48
2022-11-02T06:58:28.126Z,10.49
2022-11-02T06:59:28.133Z,10.49
2022-11-02T07:00:28.400Z,10.54
2022-11-02T07:01:28.380Z,10.54
2022-11-02T07:02:28.130Z,10.51
2022-11-02T07:03:28.066Z,10.53
2022-11-02T07:04:28.052Z,10.49
2022-11-02T07:05:28.046Z,10.51
2022-11-02T07:06:28.077Z,10.51
2022-11-02T07:07:28.042Z,10.51
2022-11-02T07:08:28.006Z,10.53
2022-11-02T07:09:28.010Z,10.53
2022-11-02T07:10:28.082Z,10.53
2022-11-02T07:11:27.980Z,10.51
2022-11-02T07:12:27.974Z,10.49
2022-11-02T07:13:27.979Z,10.53
2022-11-02T07:14:27.946Z,10.51
2022-11-02T07:15:27.938Z,10.53
2022-11-02T07:16:27.946Z,10.49
2022-11-02T07:17:31.995Z,10.54
2022-11-02T07:18:27.915Z,10.54
2022-11-02T07:19:27.891Z,10.54
2022-11-02T07:20:27.878Z,10.54
2022-11-02T07:21:27.882Z,10.53
2022-11-02T07:22:27.886Z,10.54
2022-11-02T07:23:27.853Z,10.54
2022-11-02T07:24:27.833Z,10.53
2022-11-02T07:25:27.837Z,10.53
2022-11-02T07:26:27.834Z,10.56
2022-11-02T07:27:27.810Z,10.54
2022-11-02T07:28:27.808Z,10.53
2022-11-02T07:29:27.792Z,10.54
2022-11-02T07:30:27.805Z,10.54
2022-11-02T07:31:27.781Z,10.54
2022-11-02T07:32:27.755Z,10.56
2022-11-02T07:33:27.754Z,10.56
2022-11-02T07:34:27.753Z,10.57
2022-11-02T07:35:27.748Z,10.57
2022-11-02T07:36:27.714Z,10.54
2022-11-02T07:37:27.714Z,10.54
2022-11-02T07:38:27.685Z,10.53
2022-11-02T07:39:27.684Z,10.54
2022-11-02T07:40:27.806Z,10.53
2022-11-02T07:41:27.664Z,10.53
2022-11-02T07:42:27.658Z,10.53
2022-11-02T07:43:27.638Z,10.54
2022-11-02T07:44:27.695Z,10.53
2022-11-02T07:45:27.619Z,10.56
2022-11-02T07:46:27.617Z,10.56
2022-11-02T07:47:27.595Z,10.57
2022-11-02T07:48:27.608Z,10.59
2022-11-02T07:49:27.584Z,10.61
2022-11-02T07:50:27.663Z,10.63
2022-11-02T07:51:27.550Z,10.64
2022-11-02T07:52:27.587Z,10.64
2022-11-02T07:53:27.540Z,10.67
2022-11-02T07:54:27.569Z,10.69
2022-11-02T07:55:27.524Z,10.69
2022-11-02T07:56:27.508Z,10.72
2022-11-02T07:57:27.500Z,10.72
2022-11-02T07:58:27.483Z,10.71
2022-11-02T07:59:27.486Z,10.75
2022-11-02T08:00:27.485Z,10.74
2022-11-02T08:01:27.493Z,10.74
2022-11-02T08:02:27.519Z,10.75
2022-11-02T08:03:27.537Z,10.76
2022-11-02T08:04:27.418Z,10.76
2022-11-02T08:05:27.416Z,10.78
2022-11-02T08:06:27.416Z,10.78
2022-11-02T08:07:27.399Z,10.78
2022-11-02T08:08:27.391Z,10.81
2022-11-02T08:09:27.380Z,10.82
2022-11-02T08:10:27.355Z,10.86
2022-11-02T08:11:27.341Z,10.87
2022-11-02T08:12:27.384Z,10.86
2022-11-02T08:13:27.320Z,10.86
2022-11-02T08:14:27.326Z,10.87
2022-11-02T08:15:27.308Z,10.89
2022-11-02T08:16:27.288Z,10.87
2022-11-02T08:17:27.294Z,10.89
2022-11-02T08:18:27.280Z,10.89
2022-11-02T08:19:27.259Z,10.90
2022-11-02T08:20:27.258Z,10.93
2022-11-02T08:21:27.272Z,10.94
2022-11-02T08:22:27.227Z,10.94
2022-11-02T08:23:27.487Z,10.96
2022-11-02T08:24:27.373Z,11.02
2022-11-02T08:25:27.202Z,11.05
2022-11-02T08:26:27.185Z,11.07
2022-11-02T08:27:27.180Z,11.11
2022-11-02T08:28:27.178Z,11.14
2022-11-02T08:29:27.155Z,11.17
2022-11-02T08:30:27.160Z,11.18
2022-11-02T08:31:27.140Z,11.22
2022-11-02T08:32:27.124Z,11.26
2022-11-02T08:33:27.109Z,11.26
2022-11-02T08:34:27.096Z,11.27
2022-11-02T08:35:27.120Z,11.32
2022-11-02T08:36:27.083Z,11.33
2022-11-02T08:37:27.075Z,11.41
2022-11-02T08:38:27.058Z,11.44
2022-11-02T08:39:27.047Z,11.48
2022-11-02T08:40:27.043Z,11.54
2022-11-02T08:41:27.038Z,11.57
2022-11-02T08:42:27.022Z,11.59
2022-11-02T08:43:27.000Z,11.65
2022-11-02T08:44:26.991Z,11.66
2022-11-02T08:45:26.988Z,11.68
2022-11-02T08:46:26.975Z,11.72
2022-11-02T08:47:26.991Z,11.75
2022-11-02T08:48:26.952Z,11.75
2022-11-02T08:49:26.936Z,11.80
2022-11-02T08:50:26.928Z,11.83
2022-11-02T08:51:26.916Z,11.84
2022-11-02T08:52:26.906Z,11.86
2022-11-02T08:53:26.914Z,11.87
2022-11-02T08:54:26.891Z,11.90
2022-11-02T08:55:26.876Z,11.91
2022-11-02T08:56:26.866Z,11.94
2022-11-02T08:57:26.856Z,11.97
2022-11-02T08:58:26.840Z,11.97
2022-11-02T08:59:26.879Z,12.02
2022-11-02T09:00:26.834Z,12.03
2022-11-02T09:01:26.904Z,12.06
2022-11-02T09:02:26.894Z,12.09
2022-11-02T09:03:27.688Z,12.10
2022-11-02T09:04:26.781Z,12.12
2022-11-02T09:05:26.792Z,12.13
2022-11-02T09:06:26.764Z,12.15
2022-11-02T09:07:26.766Z,12.15
2022-11-02T09:08:26.763Z,12.21
2022-11-02T09:09:26.746Z,12.21
2022-11-02T09:10:26.738Z,12.25
2022-11-02T09:11:26.709Z,12.29
2022-11-02T09:12:26.719Z,12.29
2022-11-02T09:13:26.752Z,12.36
2022-11-02T09:14:26.759Z,12.39
2022-11-02T09:15:26.664Z,12.42
2022-11-02T09:16:26.652Z,12.45
2022-11-02T09:17:26.644Z,12.49
2022-11-02T09:18:26.644Z,12.54
2022-11-02T09:19:26.614Z,12.57
2022-11-02T09:20:26.652Z,12.60
2022-11-02T09:21:26.597Z,12.61
2022-11-02T09:22:26.601Z,12.61
2022-11-02T09:23:26.572Z,12.65
2022-11-02T09:24:26.586Z,12.68
2022-11-02T09:25:26.560Z,12.68
2022-11-02T09:26:26.601Z,12.68
2022-11-02T09:27:26.534Z,12.72
2022-11-02T09:28:26.538Z,12.72
2022-11-02T09:29:26.528Z,12.75
2022-11-02T09:30:26.496Z,12.78
2022-11-02T09:31:26.487Z,12.78
2022-11-02T09:32:26.486Z,12.79
2022-11-02T09:33:26.469Z,12.80
2022-11-02T09:34:26.457Z,12.82
2022-11-02T09:35:26.465Z,12.82
2022-11-02T09:36:26.437Z,12.82
2022-11-02T09:37:26.433Z,12.85
2022-11-02T09:38:26.423Z,12.87
2022-11-02T09:39:26.401Z,12.90
2022-11-02T09:40:26.393Z,12.91
2022-11-02T09:41:26.419Z,12.93
2022-11-02T09:42:26.373Z,12.95
2022-11-02T09:43:31.916Z,12.98
2022-11-02T09:44:26.362Z,13.03
2022-11-02T09:45:26.340Z,13.03
2022-11-02T09:46:26.333Z,13.08
2022-11-02T09:48:14.853Z,13.11
2022-11-02T09:48:28.576Z,13.13
2022-11-02T09:49:26.293Z,13.18
2022-11-02T09:51:26.286Z,13.28
2022-11-02T09:52:26.427Z,13.31
2022-11-02T09:53:26.263Z,13.37
2022-11-02T09:54:26.260Z,13.37
2022-11-02T09:55:26.251Z,13.41
2022-11-02T09:56:26.224Z,13.47
2022-11-02T09:57:26.224Z,13.50
2022-11-02T09:58:26.215Z,13.49
2022-11-02T09:59:26.193Z,13.52
2022-11-02T10:00:26.184Z,13.54
2022-11-02T10:01:26.199Z,13.57
2022-11-02T10:02:26.189Z,13.59
2022-11-02T10:03:26.255Z,13.60
2022-11-02T10:04:26.170Z,13.60
2022-11-02T10:05:26.141Z,13.62
2022-11-02T10:06:26.113Z,13.65
2022-11-02T10:07:26.099Z,13.67
2022-11-02T10:08:26.097Z,13.70
2022-11-02T10:09:26.079Z,13.68
2022-11-02T10:10:26.121Z,13.71
2022-11-02T10:11:26.106Z,13.72
2022-11-02T10:12:26.052Z,13.74
2022-11-02T10:13:26.040Z,13.78
2022-11-02T10:14:26.037Z,13.78
2022-11-02T10:15:26.015Z,13.81
2022-11-02T10:16:26.024Z,13.83
2022-11-02T10:17:25.994Z,13.85
2022-11-02T10:18:25.992Z,13.85
2022-11-02T10:19:27.753Z,13.87
2022-11-02T10:20:25.976Z,13.93
2022-11-02T10:21:25.973Z,13.95
2022-11-02T10:22:25.974Z,13.95
2022-11-02T10:23:25.949Z,13.97
2022-11-02T10:24:25.923Z,13.99
2022-11-02T10:25:25.914Z,14.00
2022-11-02T10:26:25.900Z,14.00
2022-11-02T10:27:25.888Z,14.00
2022-11-02T10:28:25.998Z,14.04
2022-11-02T10:29:25.868Z,14.00
2022-11-02T10:30:25.868Z,14.00
2022-11-02T10:31:25.841Z,13.99
2022-11-02T10:32:25.860Z,13.97
2022-11-02T10:33:25.832Z,13.95
2022-11-02T10:34:25.831Z,13.93
2022-11-02T10:35:37.243Z,13.90
2022-11-02T10:36:25.803Z,13.92
2022-11-02T10:37:25.780Z,13.89
2022-11-02T10:38:25.789Z,13.90
2022-11-02T10:39:25.769Z,13.89
2022-11-02T10:40:25.749Z,13.87
2022-11-02T10:41:25.736Z,13.87
2022-11-02T10:42:25.729Z,13.89
2022-11-02T10:43:25.714Z,13.90
2022-11-02T10:44:25.708Z,13.92
2022-11-02T10:45:25.705Z,13.96
2022-11-02T10:46:25.700Z,13.96
2022-11-02T10:47:25.683Z,13.99
2022-11-02T10:48:25.659Z,14.00
2022-11-02T10:49:25.648Z,14.03
2022-11-02T10:50:25.702Z,14.03
2022-11-02T10:51:25.631Z,14.05
2022-11-02T10:52:25.692Z,14.04
2022-11-02T10:53:40.594Z,14.05
2022-11-02T10:54:30.945Z,14.07
2022-11-02T10:55:25.597Z,14.05
2022-11-02T10:56:25.597Z,14.07
2022-11-02T10:57:25.584Z,14.08
2022-11-02T10:58:25.554Z,14.10
2022-11-02T10:59:25.557Z,14.10
2022-11-02T11:00:25.668Z,14.10
2022-11-02T11:01:25.674Z,14.11
2022-11-02T11:02:25.531Z,14.12
2022-11-02T11:03:25.502Z,14.12
2022-11-02T11:04:25.490Z,14.12
2022-11-02T11:05:25.482Z,14.14
2022-11-02T11:06:25.511Z,14.15
2022-11-02T11:07:25.462Z,14.17
2022-11-02T11:08:25.451Z,14.18
2022-11-02T11:09:25.440Z,14.20
2022-11-02T11:10:25.431Z,14.23
2022-11-02T11:11:25.421Z,14.25
2022-11-02T11:12:25.457Z,14.25
2022-11-02T11:16:26.528Z,14.23
2022-11-02T11:19:41.434Z,14.26
2022-11-02T11:20:25.348Z,14.28
2022-11-02T11:21:25.312Z,14.26
2022-11-02T11:22:25.304Z,14.28
2022-11-02T11:23:25.291Z,14.29
2022-11-02T11:24:25.349Z,14.33
2022-11-02T11:25:27.978Z,14.36
2022-11-02T11:26:25.281Z,14.40
2022-11-02T11:27:25.246Z,14.37
2022-11-02T11:28:25.240Z,14.43
2022-11-02T11:29:25.230Z,14.44
2022-11-02T11:30:46.222Z,14.47
2022-11-02T11:31:25.213Z,14.47
2022-11-02T11:32:29.884Z,14.50
2022-11-02T11:33:25.188Z,14.51
2022-11-02T11:34:25.178Z,14.58
2022-11-02T11:35:25.168Z,14.62
2022-11-02T11:37:25.137Z,14.73
2022-11-02T11:38:25.138Z,14.78
2022-11-02T11:39:25.151Z,14.85
2022-11-02T11:40:25.107Z,14.89
2022-11-02T11:41:25.096Z,14.91
2022-11-02T11:42:25.101Z,14.94
2022-11-02T11:43:25.111Z,14.94
2022-11-02T11:44:25.080Z,14.97
2022-11-02T11:45:25.058Z,15.00
2022-11-02T11:46:25.073Z,15.02
2022-11-02T11:47:25.057Z,15.03
2022-11-02T11:48:25.030Z,15.04
2022-11-02T11:49:41.553Z,15.07
2022-11-02T11:50:28.606Z,15.10
2022-11-02T11:51:25.999Z,15.15
2022-11-02T11:52:30.939Z,15.19
2022-11-02T11:53:24.973Z,15.24
2022-11-02T11:54:24.963Z,15.27
2022-11-02T11:55:24.955Z,15.29
2022-11-02T11:56:24.942Z,15.35
2022-11-02T11:57:25.080Z,15.36
2022-11-02T11:58:24.949Z,15.42
2022-11-02T11:59:24.901Z,15.44
2022-11-02T12:00:24.912Z,15.49
2022-11-02T12:01:24.963Z,15.55
2022-11-02T12:02:25.014Z,15.58
2022-11-02T12:03:24.952Z,15.64
2022-11-02T12:04:24.850Z,15.68
2022-11-02T12:05:24.837Z,15.72
2022-11-02T12:06:24.903Z,15.75
2022-11-02T12:07:24.819Z,15.77
2022-11-02T12:08:24.803Z,15.77
2022-11-02T12:09:24.817Z,15.76
2022-11-02T12:10:24.783Z,15.76
2022-11-02T12:11:24.780Z,15.73
2022-11-02T12:12:24.775Z,15.72
2022-11-02T12:13:24.775Z,15.68
2022-11-02T12:14:24.758Z,15.65
2022-11-02T12:15:24.741Z,15.61
2022-11-02T12:16:24.729Z,15.59
2022-11-02T12:17:30.794Z,15.57
2022-11-02T12:18:24.702Z,15.55
2022-11-02T12:19:27.307Z,15.51
2022-11-02T12:20:24.681Z,15.54
2022-11-02T12:21:24.673Z,15.58
2022-11-02T12:22:24.669Z,15.61
2022-11-02T12:23:24.677Z,15.64
2022-11-02T12:24:24.642Z,15.70
2022-11-02T12:25:24.628Z,15.73
2022-11-02T12:26:24.618Z,15.82
2022-11-02T12:27:24.604Z,15.90
2022-11-02T12:28:24.600Z,15.97
2022-11-02T12:29:24.614Z,16.08
2022-11-02T12:30:24.589Z,16.12
2022-11-02T12:31:24.563Z,16.23
2022-11-02T12:32:24.550Z,16.24
2022-11-02T12:33:24.547Z,16.32
2022-11-02T12:34:24.544Z,16.33
2022-11-02T12:35:29.485Z,16.39
2022-11-02T12:36:24.510Z,16.42
2022-11-02T12:37:39.035Z,16.46
2022-11-02T12:38:24.495Z,16.46
2022-11-02T12:39:24.487Z,16.50
2022-11-02T12:41:24.481Z,16.51
2022-11-02T12:42:24.442Z,16.49
2022-11-02T12:43:24.443Z,16.49
2022-11-02T12:44:24.424Z,16.46
2022-11-02T12:45:24.422Z,16.42
2022-11-02T12:46:24.401Z,16.38
2022-11-02T12:47:24.423Z,16.35
2022-11-02T12:48:24.380Z,16.29
2022-11-02T12:49:24.384Z,16.24
2022-11-02T12:50:24.359Z,16.21
2022-11-02T12:51:24.361Z,16.16
2022-11-02T12:52:24.349Z,16.16
2022-11-02T12:53:24.365Z,16.13
2022-11-02T12:54:24.315Z,16.09
2022-11-02T12:55:24.312Z,16.12
2022-11-02T12:56:24.296Z,16.10
2022-11-02T12:57:24.284Z,16.10
2022-11-02T12:58:24.282Z,16.10
2022-11-02T12:59:24.289Z,16.13
2022-11-02T13:00:24.251Z,16.12
2022-11-02T13:01:24.411Z,16.13
2022-11-02T13:02:24.238Z,16.15
2022-11-02T13:03:24.261Z,16.16
2022-11-02T13:04:27.897Z,16.17
2022-11-02T13:05:24.206Z,16.21
2022-11-02T13:06:24.189Z,16.23
2022-11-02T13:07:24.182Z,16.26
2022-11-02T13:08:24.166Z,16.31
2022-11-02T13:09:24.170Z,16.35
2022-11-02T13:10:24.159Z,16.39
2022-11-02T13:11:24.149Z,16.42
2022-11-02T13:12:24.144Z,16.49
2022-11-02T13:13:24.127Z,16.56
2022-11-02T13:14:24.123Z,16.61
2022-11-02T13:15:24.103Z,16.68
2022-11-02T13:16:24.085Z,16.72
2022-11-02T13:17:24.075Z,16.72
2022-11-02T13:18:24.057Z,16.75
2022-11-02T13:19:24.055Z,16.76
2022-11-02T13:20:24.055Z,16.78
2022-11-02T13:21:24.039Z,16.84
2022-11-02T13:22:24.024Z,16.87
2022-11-02T13:23:24.114Z,16.90
2022-11-02T13:24:27.860Z,16.91
2022-11-02T13:25:24.008Z,16.93
2022-11-02T13:26:23.974Z,16.96
2022-11-02T13:27:35.901Z,16.97
2022-11-02T13:28:23.966Z,16.97
2022-11-02T13:29:23.961Z,17.01
2022-11-02T13:30:23.945Z,17.04
2022-11-02T13:31:23.925Z,17.04
2022-11-02T13:32:23.930Z,17.06
2022-11-02T13:33:23.908Z,17.08
2022-11-02T13:34:23.898Z,17.12
2022-11-02T13:35:23.880Z,17.12
2022-11-02T13:36:23.882Z,17.14
2022-11-02T13:37:23.861Z,17.15
2022-11-02T13:38:23.856Z,17.16
2022-11-02T13:39:23.850Z,17.19
2022-11-02T13:40:23.836Z,17.23
2022-11-02T13:41:23.847Z,17.26
2022-11-02T13:42:23.813Z,17.26
2022-11-02T13:43:23.790Z,17.29
2022-11-02T13:44:23.807Z,17.30
2022-11-02T13:45:23.825Z,17.33
2022-11-02T13:46:23.769Z,17.31
2022-11-02T13:47:23.759Z,17.38
2022-11-02T13:48:23.752Z,17.42
2022-11-02T13:49:23.735Z,17.45
2022-11-02T13:50:23.754Z,17.46
2022-11-02T13:51:23.716Z,17.48
2022-11-02T13:52:23.694Z,17.51
2022-11-02T13:53:23.686Z,17.51
2022-11-02T13:54:23.666Z,17.51
2022-11-02T13:55:23.735Z,17.51
2022-11-02T13:56:23.692Z,17.48
2022-11-02T13:57:23.652Z,17.48
2022-11-02T13:58:23.634Z,17.46
2022-11-02T13:59:23.640Z,17.48
2022-11-02T14:00:23.682Z,17.44
2022-11-02T14:01:23.711Z,17.38
2022-11-02T14:02:23.723Z,17.38
2022-11-02T14:03:23.584Z,17.38
2022-11-02T14:04:23.571Z,17.39
2022-11-02T14:05:23.561Z,17.41
2022-11-02T14:06:23.544Z,17.39
2022-11-02T14:07:23.599Z,17.41
2022-11-02T14:08:23.524Z,17.39
2022-11-02T14:09:23.524Z,17.39
2022-11-02T14:10:23.497Z,17.36
2022-11-02T14:11:23.505Z,17.33
2022-11-02T14:12:23.516Z,17.30
2022-11-02T14:13:23.476Z,17.29
2022-11-02T14:14:23.468Z,17.26
2022-11-02T14:15:23.449Z,17.22
2022-11-02T14:16:23.503Z,17.19
2022-11-02T14:17:23.446Z,17.19
2022-11-02T14:18:23.427Z,17.19
2022-11-02T14:19:23.419Z,17.14
2022-11-02T14:20:23.398Z,17.14
2022-11-02T14:21:23.385Z,17.09
2022-11-02T14:22:23.381Z,17.09
2022-11-02T14:23:23.389Z,17.09
2022-11-02T14:24:23.353Z,17.09
2022-11-02T14:25:23.344Z,17.11
2022-11-02T14:26:23.344Z,17.12
2022-11-02T14:27:23.323Z,17.11
2022-11-02T14:28:23.313Z,17.09
2022-11-02T14:29:23.332Z,17.12
2022-11-02T14:30:23.306Z,17.11
2022-11-02T14:31:23.295Z,17.11
2022-11-02T14:32:23.277Z,17.08
2022-11-02T14:33:23.265Z,17.08
2022-11-02T14:34:23.245Z,17.09
2022-11-02T14:35:23.256Z,17.11
2022-11-02T14:36:23.218Z,17.09
2022-11-02T14:37:23.228Z,17.12
2022-11-02T14:38:23.216Z,17.08
2022-11-02T14:39:23.193Z,17.09
2022-11-02T14:40:23.193Z,17.08
2022-11-02T14:41:23.173Z,17.08
2022-11-02T14:42:23.159Z,17.06
2022-11-02T14:43:23.179Z,17.04
2022-11-02T14:44:23.162Z,17.05
2022-11-02T14:45:23.130Z,17.04
2022-11-02T14:46:23.134Z,17.02
2022-11-02T14:47:23.108Z,17.02
2022-11-02T14:48:23.113Z,16.99
2022-11-02T14:49:23.112Z,16.99
2022-11-02T14:50:23.073Z,16.97
2022-11-02T14:51:23.065Z,16.94
2022-11-02T14:52:23.056Z,16.93
2022-11-02T14:53:23.063Z,16.93
2022-11-02T14:54:23.034Z,16.90
2022-11-02T14:55:23.034Z,16.89
2022-11-02T14:56:23.024Z,16.86
2022-11-02T14:57:23.000Z,16.83
2022-11-02T14:58:22.999Z,16.79
2022-11-02T14:59:23.007Z,16.76
2022-11-02T15:00:23.016Z,16.75
2022-11-02T15:01:22.994Z,16.71
2022-11-02T15:02:22.944Z,16.69
2022-11-02T15:03:22.942Z,16.66
2022-11-02T15:04:22.957Z,16.65
2022-11-02T15:05:22.952Z,16.61
2022-11-02T15:06:22.915Z,16.58
2022-11-02T15:07:22.922Z,16.57
2022-11-02T15:08:22.889Z,16.53
2022-11-02T15:09:22.883Z,16.51
2022-11-02T15:10:22.873Z,16.47
2022-11-02T15:11:22.852Z,16.46
2022-11-02T15:12:22.871Z,16.43
2022-11-02T15:13:22.836Z,16.39
2022-11-02T15:14:22.818Z,16.41
2022-11-02T15:15:22.816Z,16.36
2022-11-02T15:16:22.813Z,16.32
2022-11-02T15:17:22.805Z,16.29
2022-11-02T15:18:22.775Z,16.26
2022-11-02T15:19:22.778Z,16.23
2022-11-02T15:20:22.755Z,16.20
2022-11-02T15:21:22.746Z,16.17
2022-11-02T15:22:22.753Z,16.15
2022-11-02T15:23:30.667Z,16.10
2022-11-02T15:24:22.719Z,16.05
2022-11-02T15:25:22.703Z,16.05
2022-11-02T15:26:22.688Z,16.02
2022-11-02T15:27:22.686Z,15.98
2022-11-02T15:28:22.709Z,15.97
2022-11-02T15:29:22.663Z,15.94
2022-11-02T15:30:28.056Z,15.92
2022-11-02T15:31:26.151Z,15.86
2022-11-02T15:32:23.168Z,15.83
2022-11-02T15:33:22.616Z,15.83
2022-11-02T15:34:22.664Z,15.82
2022-11-02T15:35:22.738Z,15.79
2022-11-02T15:36:22.577Z,15.76
2022-11-02T15:37:22.574Z,15.75
2022-11-02T15:38:29.630Z,15.72
2022-11-02T15:39:22.574Z,15.68
2022-11-02T15:40:22.565Z,15.67
2022-11-02T15:41:22.539Z,15.64
2022-11-02T15:42:22.546Z,15.62
2022-11-02T15:43:22.514Z,15.59
2022-11-02T15:44:22.520Z,15.57
2022-11-02T15:46:22.484Z,15.52
2022-11-02T15:47:22.472Z,15.47
2022-11-02T15:48:22.482Z,15.44
2022-11-02T15:49:22.444Z,15.42
2022-11-02T15:50:22.440Z,15.42
2022-11-02T15:51:22.453Z,15.39
2022-11-02T15:52:22.423Z,15.37
2022-11-02T15:53:24.022Z,15.36
2022-11-02T15:54:22.447Z,15.28
2022-11-02T15:55:22.411Z,15.25
2022-11-02T15:56:22.429Z,15.22
2022-11-02T15:57:22.388Z,15.22
2022-11-02T15:58:22.361Z,15.19
2022-11-02T15:59:22.337Z,15.18
2022-11-02T16:00:22.462Z,15.15
2022-11-02T16:01:22.520Z,15.14
2022-11-02T16:02:22.379Z,15.07
2022-11-02T16:03:22.319Z,15.04
2022-11-02T16:04:22.294Z,15.03
2022-11-02T16:05:22.287Z,14.97
2022-11-02T16:06:22.269Z,14.99
2022-11-02T16:07:23.985Z,14.92
2022-11-02T16:08:22.629Z,14.91
2022-11-02T16:09:22.230Z,14.88
2022-11-02T16:10:22.220Z,14.89
2022-11-02T16:11:22.255Z,14.88
2022-11-02T16:12:22.215Z,14.85
2022-11-02T16:13:22.194Z,14.84
2022-11-02T16:14:22.190Z,14.81
2022-11-02T16:15:22.279Z,14.78
2022-11-02T16:16:22.156Z,14.77
2022-11-02T16:17:22.166Z,14.73
2022-11-02T16:18:22.146Z,14.69
2022-11-02T16:19:22.151Z,14.69
2022-11-02T16:20:22.122Z,14.68
2022-11-02T16:21:22.112Z,14.66
2022-11-02T16:22:22.130Z,14.63
2022-11-02T16:23:22.076Z,14.60
2022-11-02T16:24:22.096Z,14.58
2022-11-02T16:25:22.139Z,14.54
2022-11-02T16:26:22.099Z,14.54
2022-11-02T16:27:22.104Z,14.54
2022-11-02T16:28:22.115Z,14.50
2022-11-02T16:29:22.081Z,14.48
2022-11-02T16:30:22.105Z,14.44
2022-11-02T16:31:22.054Z,14.41
2022-11-02T16:32:22.158Z,14.36
2022-11-02T16:33:22.021Z,14.37
2022-11-02T16:34:22.052Z,14.36
2022-11-02T16:35:22.084Z,14.35
2022-11-02T16:36:22.031Z,14.33
2022-11-02T16:37:21.980Z,14.30
2022-11-02T16:38:21.988Z,14.28
2022-11-02T16:39:21.977Z,14.28
2022-11-02T16:40:21.962Z,14.26
2022-11-02T16:41:21.948Z,14.25
2022-11-02T16:42:21.963Z,14.23
2022-11-02T16:43:21.920Z,14.23
2022-11-02T16:44:21.914Z,14.22
2022-11-02T16:45:22.017Z,14.20
2022-11-02T16:46:21.892Z,14.17
2022-11-02T16:47:21.900Z,14.14
2022-11-02T16:48:21.870Z,14.10
2022-11-02T16:49:21.874Z,14.10
2022-11-02T16:50:21.851Z,14.04
2022-11-02T16:51:21.835Z,14.05
2022-11-02T16:52:21.847Z,14.03